createdAt,value
2022-12-23T00:00:32.084Z,32.83
2022-12-23T00:03:21.887Z,27.05
2022-12-23T00:05:52.368Z,29.48
2022-12-23T00:08:23.275Z,26.85
2022-12-23T00:10:52.617Z,27.27
2022-12-23T00:13:40.493Z,31.65
2022-12-23T00:16:11.894Z,29.80
2022-12-23T00:18:41.328Z,31.60
2022-12-23T00:21:12.501Z,31.95
2022-12-23T00:23:43.229Z,28.83
2022-12-23T00:26:26.028Z,36.83
2022-12-23T00:28:56.440Z,34.25
2022-12-23T00:31:26.081Z,34.28
2022-12-23T00:33:59.452Z,147.93
2022-12-23T00:36:29.268Z,57.63
2022-12-23T00:39:17.888Z,35.25
2022-12-23T00:42:05.473Z,36.30
2022-12-23T00:44:34.984Z,30.88
2022-12-23T00:47:04.826Z,31.50
2022-12-23T00:49:42.382Z,30.45
2022-12-23T00:52:13.449Z,30.23
2022-12-23T00:54:43.400Z,124.82
2022-12-23T00:57:12.821Z,76.63
2022-12-23T00:59:41.155Z,182.23
2022-12-23T01:02:30.151Z,196.43
2022-12-23T01:05:18.516Z,121.82
2022-12-23T01:07:49.189Z,64.13
2022-12-23T01:10:17.813Z,35.72
2022-12-23T01:12:47.167Z,61.47
2022-12-23T01:15:17.057Z,41.83
2022-12-23T01:17:51.974Z,25.35
2022-12-23T01:20:20.958Z,37.72
2022-12-23T01:22:50.598Z,48.15
2022-12-23T01:25:19.118Z,29.95
2022-12-23T01:27:48.886Z,25.52
2022-12-23T01:30:17.274Z,25.25
2022-12-23T01:32:46.999Z,28.48
2022-12-23T01:35:15.670Z,24.85
2022-12-23T01:37:45.477Z,27.17
2022-12-23T01:40:15.039Z,25.08
2022-12-23T01:42:43.814Z,33.03
2022-12-23T01:45:17.027Z,29.10
2022-12-23T01:47:48.966Z,23.10
2022-12-23T01:50:17.447Z,24.73
2022-12-23T01:52:50.868Z,22.70
2022-12-23T01:55:21.883Z,29.52
2022-12-23T01:57:52.386Z,27.92
2022-12-23T02:00:41.146Z,28.88
2022-12-23T02:03:28.707Z,31.15
2022-12-23T02:06:18.146Z,28.63
2022-12-23T02:09:06.047Z,26.95
2022-12-23T02:11:53.026Z,37.60
2022-12-23T02:14:46.311Z,37.83
2022-12-23T02:17:18.590Z,35.60
2022-12-23T02:19:48.728Z,32.15
2022-12-23T02:22:57.061Z,36.53
2022-12-23T02:25:35.024Z,28.83
2022-12-23T02:28:21.884Z,27.38
2022-12-23T02:31:04.833Z,22.83
2022-12-23T02:33:48.840Z,24.80
2022-12-23T02:36:19.120Z,27.45
2022-12-23T02:39:09.141Z,27.38
2022-12-23T02:41:38.259Z,27.80
2022-12-23T02:44:13.254Z,26.00
2022-12-23T02:46:47.911Z,23.90
2022-12-23T02:49:19.327Z,30.95
2022-12-23T02:51:50.282Z,31.20
2022-12-23T02:54:23.804Z,30.73
2022-12-23T02:56:54.295Z,30.10
2022-12-23T02:59:29.844Z,40.33
2022-12-23T03:04:34.302Z,26.45
2022-12-23T03:07:07.650Z,50.83
2022-12-23T03:09:59.926Z,24.65
2022-12-23T03:12:56.159Z,37.33
2022-12-23T03:15:33.701Z,26.55
2022-12-23T03:18:12.839Z,24.85
2022-12-23T03:21:07.072Z,28.75
2022-12-23T03:23:43.027Z,27.27
2022-12-23T03:26:17.221Z,26.45
2022-12-23T03:28:50.116Z,28.90
2022-12-23T03:31:21.319Z,29.48
2022-12-23T03:33:56.317Z,27.40
2022-12-23T03:36:30.093Z,29.02
2022-12-23T03:39:02.646Z,27.40
2022-12-23T03:41:42.349Z,23.80
2022-12-23T03:44:14.284Z,23.17
2022-12-23T03:46:47.672Z,25.95
2022-12-23T03:49:20.911Z,25.88
2022-12-23T03:51:57.161Z,24.20
2022-12-23T03:54:33.758Z,26.92
2022-12-23T03:59:34.445Z,25.05
2022-12-23T04:02:15.936Z,27.35
2022-12-23T04:05:00.102Z,27.48
2022-12-23T04:07:33.080Z,29.42
2022-12-23T04:10:02.265Z,30.23
2022-12-23T04:12:35.133Z,28.35
2022-12-23T04:15:10.676Z,28.75
2022-12-23T04:17:41.213Z,42.40
2022-12-23T04:20:12.077Z,35.50
2022-12-23T04:22:40.851Z,27.52
2022-12-23T04:25:11.572Z,28.90
2022-12-23T04:27:40.784Z,38.38
2022-12-23T04:30:19.283Z,31.58
2022-12-23T04:32:48.365Z,35.15
2022-12-23T04:35:17.579Z,30.45
2022-12-23T04:37:52.055Z,46.92
2022-12-23T04:40:23.238Z,51.15
2022-12-23T04:42:52.611Z,32.55
2022-12-23T04:45:21.492Z,25.42
2022-12-23T04:47:49.923Z,23.10
2022-12-23T04:50:20.064Z,23.95
2022-12-23T04:52:56.461Z,21.88
2022-12-23T04:55:30.070Z,25.58
2022-12-23T04:57:59.592Z,25.85
2022-12-23T05:00:39.761Z,24.00
2022-12-23T05:03:18.208Z,26.10
2022-12-23T05:05:48.340Z,25.50
2022-12-23T05:08:25.257Z,27.45
2022-12-23T05:10:53.886Z,28.90
2022-12-23T05:13:22.760Z,30.25
2022-12-23T05:16:02.135Z,22.23
2022-12-23T05:25:05.935Z,25.70
2022-12-23T05:27:38.109Z,27.80
2022-12-23T05:30:10.621Z,24.17
2022-12-23T05:32:45.100Z,28.88
2022-12-23T05:39:29.382Z,27.48
2022-12-23T05:41:59.058Z,33.35
2022-12-23T05:44:29.285Z,31.65
2022-12-23T05:46:57.879Z,30.90
2022-12-23T05:49:27.015Z,35.75
2022-12-23T05:51:56.941Z,29.10
2022-12-23T05:54:26.135Z,30.85
2022-12-23T05:56:56.256Z,33.50
2022-12-23T05:59:30.588Z,32.25
2022-12-23T06:02:02.474Z,30.13
2022-12-23T06:04:31.212Z,29.42
2022-12-23T06:07:01.420Z,31.65
2022-12-23T06:09:29.701Z,27.60
2022-12-23T06:11:58.387Z,36.95
2022-12-23T06:14:29.521Z,26.77
2022-12-23T06:17:04.503Z,28.27
2022-12-23T06:19:38.973Z,30.88
2022-12-23T06:22:08.601Z,27.08
2022-12-23T06:24:37.106Z,27.65
2022-12-23T06:27:06.949Z,25.08
2022-12-23T06:29:36.734Z,25.63
2022-12-23T06:32:07.593Z,29.92
2022-12-23T06:34:36.456Z,68.60
2022-12-23T06:37:05.005Z,68.47
2022-12-23T06:39:33.619Z,32.03
2022-12-23T06:42:04.522Z,31.83
2022-12-23T06:44:33.892Z,52.55
2022-12-23T06:47:03.639Z,38.88
2022-12-23T06:49:33.556Z,33.72
2022-12-23T06:52:03.924Z,36.10
2022-12-23T06:54:38.719Z,33.78
2022-12-23T06:57:08.075Z,31.83
2022-12-23T06:59:36.212Z,35.78
2022-12-23T07:02:06.764Z,41.22
2022-12-23T07:04:35.310Z,44.85
2022-12-23T07:07:03.874Z,47.58
2022-12-23T07:09:33.799Z,83.85
2022-12-23T07:12:04.035Z,80.47
2022-12-23T07:14:38.414Z,69.85
2022-12-23T07:17:07.485Z,59.00
2022-12-23T07:19:37.197Z,54.80
2022-12-23T07:22:06.671Z,48.33
2022-12-23T07:24:36.386Z,46.22
2022-12-23T07:27:07.970Z,58.88
2022-12-23T07:29:37.882Z,58.17
2022-12-23T07:32:09.369Z,42.15
2022-12-23T07:34:37.781Z,51.92
2022-12-23T07:37:06.431Z,53.50
2022-12-23T07:39:37.012Z,109.63
2022-12-23T07:42:42.720Z,114.05
2022-12-23T07:44:58.405Z,86.35
2022-12-23T07:47:28.669Z,98.88
2022-12-23T07:49:57.558Z,54.40
2022-12-23T07:52:29.332Z,61.05
2022-12-23T07:55:00.528Z,85.40
2022-12-23T07:57:29.721Z,107.13
2022-12-23T07:59:58.398Z,71.00
2022-12-23T08:02:30.682Z,57.95
2022-12-23T08:05:00.437Z,57.78
2022-12-23T08:07:31.397Z,42.63
2022-12-23T08:10:01.121Z,41.45
2022-12-23T08:12:29.269Z,43.45
2022-12-23T08:14:57.809Z,40.70
2022-12-23T08:17:30.576Z,47.75
2022-12-23T08:20:01.135Z,51.60
2022-12-23T08:22:31.780Z,45.05
2022-12-23T08:25:03.525Z,47.55
2022-12-23T08:27:35.123Z,59.28
2022-12-23T08:30:06.651Z,57.25
2022-12-23T08:32:40.603Z,44.50
2022-12-23T08:37:56.761Z,48.08
2022-12-23T08:40:27.998Z,51.45
2022-12-23T08:42:57.962Z,62.50
2022-12-23T08:45:27.743Z,54.55
2022-12-23T08:47:56.092Z,59.63
2022-12-23T08:50:25.086Z,57.60
2022-12-23T08:52:55.736Z,56.63
2022-12-23T08:55:27.830Z,68.03
2022-12-23T08:58:05.682Z,58.60
2022-12-23T09:00:35.665Z,58.13
2022-12-23T09:03:06.348Z,68.68
2022-12-23T09:05:41.943Z,93.97
2022-12-23T09:08:12.123Z,65.33
2022-12-23T09:10:45.219Z,75.00
2022-12-23T09:13:19.935Z,54.45
2022-12-23T09:15:54.776Z,80.60
2022-12-23T09:18:23.866Z,87.60
2022-12-23T09:21:05.271Z,74.68
2022-12-23T09:23:34.747Z,70.38
2022-12-23T09:26:08.420Z,70.47
2022-12-23T09:28:37.021Z,100.55
2022-12-23T09:31:10.189Z,101.88
2022-12-23T09:33:39.258Z,76.28
2022-12-23T09:36:08.205Z,63.92
2022-12-23T09:38:38.976Z,54.25
2022-12-23T09:42:02.734Z,64.78
2022-12-23T09:45:05.990Z,78.55
2022-12-23T09:47:40.085Z,86.25
2022-12-23T09:50:30.566Z,75.82
2022-12-23T09:53:13.644Z,60.53
2022-12-23T09:56:01.705Z,72.05
2022-12-23T09:58:36.365Z,63.47
2022-12-23T10:01:07.453Z,70.30
2022-12-23T10:04:01.176Z,64.68
2022-12-23T10:06:33.605Z,61.63
2022-12-23T10:09:05.438Z,60.28
2022-12-23T10:11:45.767Z,69.70
2022-12-23T10:14:25.983Z,72.75
2022-12-23T10:17:00.840Z,55.83
2022-12-23T10:19:52.866Z,57.22
2022-12-23T10:22:22.714Z,51.55
2022-12-23T10:24:54.041Z,50.85
2022-12-23T10:27:36.645Z,56.38
2022-12-23T10:33:31.400Z,72.25
2022-12-23T10:36:11.175Z,71.30
2022-12-23T10:38:56.377Z,87.70
2022-12-23T10:41:38.484Z,51.20
2022-12-23T10:44:10.350Z,53.55
2022-12-23T10:47:15.095Z,45.90
2022-12-23T10:50:06.688Z,47.38
2022-12-23T10:52:41.358Z,48.78
2022-12-23T10:55:34.062Z,45.30
2022-12-23T10:58:17.278Z,47.47
2022-12-23T11:01:00.506Z,47.53
2022-12-23T11:04:00.892Z,54.90
2022-12-23T11:06:36.783Z,51.58
2022-12-23T11:09:14.211Z,43.08
2022-12-23T11:12:02.899Z,41.42
2022-12-23T11:15:03.595Z,57.50
2022-12-23T11:17:35.211Z,55.22
2022-12-23T11:20:22.363Z,63.83
2022-12-23T11:22:56.550Z,81.90
2022-12-23T11:25:30.496Z,90.07
2022-12-23T11:28:07.103Z,78.35
2022-12-23T11:30:50.391Z,71.45
2022-12-23T11:33:24.569Z,82.15
2022-12-23T11:36:15.666Z,89.50
2022-12-23T11:38:54.198Z,75.32
2022-12-23T11:41:26.306Z,84.43
2022-12-23T11:44:18.767Z,78.47
2022-12-23T11:46:55.166Z,84.40
2022-12-23T11:49:28.792Z,89.32
2022-12-23T11:52:14.904Z,93.38
2022-12-23T11:54:56.060Z,86.85
2022-12-23T11:57:40.968Z,72.32
2022-12-23T12:00:28.257Z,68.75
2022-12-23T12:03:00.133Z,57.80
2022-12-23T12:05:39.955Z,54.20
2022-12-23T12:08:19.492Z,77.20
2022-12-23T12:10:56.364Z,79.20
2022-12-23T12:13:49.262Z,86.72
2022-12-23T12:16:55.350Z,101.70
2022-12-23T12:22:46.188Z,61.30
2022-12-23T12:25:23.017Z,65.05
2022-12-23T12:28:04.065Z,62.83
2022-12-23T12:31:24.716Z,72.55
2022-12-23T12:34:18.188Z,68.93
2022-12-23T12:37:03.062Z,111.82
2022-12-23T12:39:50.430Z,151.02
2022-12-23T12:42:36.849Z,101.28
2022-12-23T12:45:41.825Z,62.20
2022-12-23T12:48:30.041Z,43.87
2022-12-23T12:51:23.328Z,48.92
2022-12-23T12:57:56.519Z,60.53
2022-12-23T13:00:26.552Z,76.15
2022-12-23T13:03:02.733Z,45.70
2022-12-23T13:06:00.386Z,37.53
2022-12-23T13:08:41.095Z,39.33
2022-12-23T13:11:53.440Z,40.58
2022-12-23T13:14:39.636Z,35.58
2022-12-23T13:19:59.747Z,46.80
2022-12-23T13:22:33.090Z,78.07
2022-12-23T13:25:39.457Z,84.30
2022-12-23T13:28:46.157Z,158.05
2022-12-23T13:31:40.139Z,186.45
2022-12-23T13:34:15.846Z,437.45
2022-12-23T13:37:28.877Z,472.67
2022-12-23T13:40:10.396Z,388.70
2022-12-23T13:42:47.267Z,298.00
2022-12-23T13:45:17.570Z,241.23
2022-12-23T13:47:46.411Z,249.13
2022-12-23T13:50:26.483Z,120.53
2022-12-23T13:53:01.204Z,81.57
2022-12-23T13:55:32.511Z,126.30
2022-12-23T13:58:20.371Z,127.18
2022-12-23T14:01:13.098Z,136.40
2022-12-23T14:03:41.811Z,226.70
2022-12-23T14:06:25.647Z,670.15
2022-12-23T14:08:56.079Z,240.27
2022-12-23T14:11:33.481Z,296.35
2022-12-23T14:14:15.161Z,125.90
2022-12-23T14:17:11.363Z,133.73
2022-12-23T14:19:43.991Z,108.38
2022-12-23T14:22:29.192Z,149.23
2022-12-23T14:25:22.397Z,87.90
2022-12-23T14:27:52.295Z,91.93
2022-12-23T14:30:38.444Z,84.03
2022-12-23T14:33:31.472Z,66.43
2022-12-23T14:36:42.992Z,313.67
2022-12-23T14:39:17.528Z,444.58
2022-12-23T14:42:05.428Z,274.08
2022-12-23T14:44:46.933Z,208.63
2022-12-23T14:47:49.718Z,213.80
2022-12-23T14:50:42.584Z,290.60
2022-12-23T14:53:24.008Z,294.98
2022-12-23T14:56:30.306Z,221.13
2022-12-23T14:59:18.014Z,229.25
2022-12-23T15:01:54.143Z,205.60
2022-12-23T15:04:47.973Z,153.27
2022-12-23T15:07:42.747Z,192.73
2022-12-23T15:10:31.710Z,200.48
2022-12-23T15:13:04.833Z,174.70
2022-12-23T15:15:35.237Z,149.57
2022-12-23T15:18:14.038Z,132.48
2022-12-23T15:21:04.780Z,117.38
2022-12-23T15:23:36.486Z,143.68
2022-12-23T15:26:15.732Z,189.77
2022-12-23T15:28:59.213Z,135.73
2022-12-23T15:31:52.183Z,126.30
2022-12-23T15:34:26.210Z,157.13
2022-12-23T15:36:58.614Z,206.52
2022-12-23T15:39:40.095Z,263.95
2022-12-23T15:42:28.412Z,260.65
2022-12-23T15:45:24.048Z,243.00
2022-12-23T15:48:00.179Z,232.90
2022-12-23T15:50:51.081Z,260.20
2022-12-23T15:53:20.049Z,282.88
2022-12-23T15:55:51.273Z,348.77
2022-12-23T15:58:26.251Z,959.05
2022-12-23T16:01:00.376Z,638.67
2022-12-23T16:03:52.896Z,391.75
2022-12-23T16:06:49.578Z,198.23
2022-12-23T16:09:18.118Z,211.70
2022-12-23T16:12:11.347Z,222.25
2022-12-23T16:14:44.281Z,187.30
2022-12-23T16:17:35.135Z,199.93
2022-12-23T16:20:41.279Z,193.38
2022-12-23T16:23:12.305Z,219.07
2022-12-23T16:25:53.410Z,220.63
2022-12-23T16:28:35.322Z,202.35
2022-12-23T16:31:07.022Z,231.57
2022-12-23T16:33:56.583Z,317.83
2022-12-23T16:36:31.847Z,228.73
2022-12-23T16:39:23.115Z,170.02
2022-12-23T16:41:52.309Z,198.80
2022-12-23T16:44:26.187Z,228.20
2022-12-23T16:47:17.209Z,198.00
2022-12-23T16:49:47.350Z,204.32
2022-12-23T16:52:16.553Z,201.93
2022-12-23T16:54:46.778Z,213.98
2022-12-23T16:57:15.611Z,104.78
2022-12-23T16:59:47.010Z,138.63
2022-12-23T17:02:21.534Z,104.85
2022-12-23T17:04:52.015Z,93.97
2022-12-23T17:07:21.058Z,89.72
2022-12-23T17:09:51.701Z,78.18
2022-12-23T17:12:21.393Z,90.68
2022-12-23T17:14:51.220Z,85.88
2022-12-23T17:17:21.359Z,96.05
2022-12-23T17:19:58.944Z,80.88
2022-12-23T17:22:37.478Z,166.98
2022-12-23T17:25:10.230Z,182.98
2022-12-23T17:27:42.203Z,174.73
2022-12-23T17:30:16.617Z,92.43
2022-12-23T17:33:02.203Z,196.57
2022-12-23T17:35:31.743Z,127.10
2022-12-23T17:38:19.543Z,91.47
2022-12-23T17:40:59.536Z,95.30
2022-12-23T17:43:32.851Z,115.70
2022-12-23T17:46:45.804Z,80.70
2022-12-23T18:13:20.423Z,62.33
2022-12-23T18:19:19.724Z,87.32
2022-12-23T18:21:49.518Z,71.53
2022-12-23T18:24:21.551Z,61.13
2022-12-23T18:27:15.970Z,72.32
2022-12-23T18:29:47.729Z,58.70
2022-12-23T18:32:46.198Z,78.30
2022-12-23T18:35:40.103Z,112.75
2022-12-23T18:46:07.501Z,67.05
2022-12-23T18:48:55.547Z,56.08
2022-12-23T18:59:21.376Z,63.03
2022-12-23T19:05:53.135Z,80.53
2022-12-23T19:08:28.008Z,104.22
2022-12-23T19:11:06.846Z,97.28
2022-12-23T19:13:37.529Z,118.18
2022-12-23T19:16:08.623Z,120.22
2022-12-23T19:18:37.885Z,156.30
2022-12-23T19:21:06.673Z,138.80
2022-12-23T19:23:37.406Z,85.10
2022-12-23T19:26:07.062Z,89.45
2022-12-23T19:28:38.254Z,168.75
2022-12-23T19:31:11.744Z,122.40
2022-12-23T19:33:48.389Z,81.50
2022-12-23T19:36:25.145Z,89.93
2022-12-23T19:38:56.071Z,71.38
2022-12-23T19:41:26.333Z,153.35
2022-12-23T19:43:57.267Z,62.92
2022-12-23T19:46:31.808Z,72.22
2022-12-23T19:49:04.338Z,56.53
2022-12-23T19:51:32.746Z,55.00
2022-12-23T19:54:02.792Z,59.92
2022-12-23T19:56:35.232Z,61.22
2022-12-23T19:59:10.877Z,45.08
2022-12-23T20:01:43.033Z,72.15
2022-12-23T20:04:21.314Z,58.72
2022-12-23T20:06:56.225Z,60.72
2022-12-23T20:09:26.815Z,60.72
2022-12-23T20:15:06.471Z,54.45
2022-12-23T20:23:27.396Z,62.03
2022-12-23T20:26:00.983Z,56.33
2022-12-23T20:28:35.367Z,68.00
2022-12-23T20:31:29.265Z,62.10
2022-12-23T20:34:04.386Z,73.88
2022-12-23T20:36:36.204Z,91.93
2022-12-23T20:45:48.229Z,158.77
2022-12-23T20:48:18.457Z,148.60
2022-12-23T20:50:54.234Z,129.82
2022-12-23T20:53:36.945Z,121.95
2022-12-23T20:56:22.662Z,127.88
2022-12-23T20:58:55.881Z,156.98
2022-12-23T21:01:41.015Z,115.00
2022-12-23T21:04:33.668Z,92.88
2022-12-23T21:07:05.152Z,85.68
2022-12-23T21:09:33.773Z,149.52
2022-12-23T21:12:05.138Z,142.07
2022-12-23T21:14:34.820Z,193.68
2022-12-23T21:17:06.057Z,178.35
2022-12-23T21:19:38.177Z,163.75
2022-12-23T21:22:17.911Z,192.05
2022-12-23T21:24:46.901Z,230.30
2022-12-23T21:27:18.598Z,162.10
2022-12-23T21:29:55.411Z,116.13
2022-12-23T21:32:28.389Z,110.93
2022-12-23T21:35:11.849Z,103.00
2022-12-23T21:37:46.015Z,110.80
2022-12-23T21:40:18.870Z,150.75
2022-12-23T21:43:27.131Z,106.03
2022-12-23T21:46:28.399Z,88.22
2022-12-23T21:49:04.167Z,60.08
2022-12-23T21:51:40.794Z,64.80
2022-12-23T21:56:59.282Z,64.22
2022-12-23T21:59:57.372Z,58.65
2022-12-23T22:02:50.080Z,55.60
2022-12-23T22:05:30.615Z,451.23
2022-12-23T22:07:59.999Z,141.90
2022-12-23T22:10:37.632Z,64.88
2022-12-23T22:13:16.286Z,57.78
2022-12-23T22:18:21.020Z,63.65
2022-12-23T22:20:50.478Z,63.58
2022-12-23T22:23:21.613Z,103.10
2022-12-23T22:25:56.635Z,82.32
2022-12-23T22:28:26.879Z,74.50
2022-12-23T22:31:05.650Z,137.27
2022-12-23T22:33:36.726Z,134.82
2022-12-23T22:36:05.604Z,71.82
2022-12-23T22:38:34.171Z,71.30
2022-12-23T22:43:39.760Z,79.50
2022-12-23T22:46:08.677Z,63.53
2022-12-23T22:48:38.310Z,70.72
2022-12-23T22:51:19.273Z,69.30
2022-12-23T22:53:53.885Z,67.38
2022-12-23T22:56:30.783Z,66.20
2022-12-23T22:58:59.708Z,64.28
2022-12-23T23:01:33.164Z,60.75
2022-12-23T23:04:19.058Z,57.72
2022-12-23T23:06:50.852Z,56.40
2022-12-23T23:09:22.519Z,51.05
2022-12-23T23:11:54.731Z,63.58
2022-12-23T23:14:26.448Z,57.45
2022-12-23T23:16:55.434Z,46.22
2022-12-23T23:19:27.118Z,40.50
2022-12-23T23:21:57.363Z,61.45
2022-12-23T23:24:31.045Z,64.97
2022-12-23T23:27:02.851Z,75.05
2022-12-23T23:29:35.454Z,54.03
2022-12-23T23:32:08.645Z,57.63
2022-12-23T23:34:40.640Z,81.00
2022-12-23T23:37:12.011Z,72.25
2022-12-23T23:39:42.533Z,82.38
2022-12-23T23:42:12.234Z,54.92
2022-12-23T23:44:40.517Z,47.67
2022-12-23T23:47:13.060Z,43.55
2022-12-23T23:49:42.864Z,39.47
2022-12-23T23:52:18.455Z,50.05
2022-12-23T23:54:50.125Z,46.58
2022-12-23T23:57:19.945Z,40.65
2022-12-23T23:59:48.633Z,44.83
